Sugar Grove, Virginia
Current Conditions -  °F | °C
As of 7:35 PM on Monday 22 Dec 2014 (Local Time) from KMKJ Reporting Station
Haze Haze  
Wind Chill: 29°   Ceiling: 200
Heat Index: 36°   Visibility: 1.5mi
Dew Point: 35°   Wind: 9mph
Humidity: 96%   Direction: 60°ENE
Pressure: 30.01"   Gusts: NA
Location:  36.78°N, 81.41°W
Report Text: KMKJ 230035Z AUTO 06008KT 1 1/2SM BR OVC002 02/02 A3001 RMK AO2 T00230017
Loading
Personal Weather Stations






























Interactive Weather Map New forecast layout! Learn more

10-Day Weather Forecast

Advertisements
Track Severe Weather on mobile